sensor_id;sensor_type;location;lat;lon;timestamp;P1;durP1;ratioP1;P2;durP2;ratioP2
10416;SDS011;62605;49.432;8.680;2022-10-17T00:00:41;1.73;;;1.40;;
10416;SDS011;62605;49.432;8.680;2022-10-17T00:03:09;2.00;;;1.55;;
10416;SDS011;62605;49.432;8.680;2022-10-17T00:05:37;5.32;;;1.85;;
10416;SDS011;62605;49.432;8.680;2022-10-17T00:08:06;3.72;;;1.50;;
10416;SDS011;62605;49.432;8.680;2022-10-17T00:10:34;1.98;;;1.60;;
10416;SDS011;62605;49.432;8.680;2022-10-17T00:13:01;2.03;;;1.80;;
10416;SDS011;62605;49.432;8.680;2022-10-17T00:15:29;2.33;;;1.67;;
10416;SDS011;62605;49.432;8.680;2022-10-17T00:17:56;4.25;;;2.22;;
10416;SDS011;62605;49.432;8.680;2022-10-17T00:20:24;3.72;;;1.48;;
10416;SDS011;62605;49.432;8.680;2022-10-17T00:22:52;1.27;;;1.17;;
10416;SDS011;62605;49.432;8.680;2022-10-17T00:25:19;4.32;;;1.90;;
10416;SDS011;62605;49.432;8.680;2022-10-17T00:27:46;1.50;;;1.40;;
10416;SDS011;62605;49.432;8.680;2022-10-17T00:30:13;2.75;;;1.65;;
10416;SDS011;62605;49.432;8.680;2022-10-17T00:32:41;1.40;;;1.30;;
10416;SDS011;62605;49.432;8.680;2022-10-17T00:35:08;1.63;;;1.52;;
10416;SDS011;62605;49.432;8.680;2022-10-17T00:37:37;1.48;;;1.30;;
10416;SDS011;62605;49.432;8.680;2022-10-17T00:40:05;3.80;;;1.42;;
10416;SDS011;62605;49.432;8.680;2022-10-17T00:42:33;2.65;;;1.30;;
10416;SDS011;62605;49.432;8.680;2022-10-17T00:45:09;2.05;;;1.52;;
10416;SDS011;62605;49.432;8.680;2022-10-17T00:47:40;2.10;;;1.50;;
10416;SDS011;62605;49.432;8.680;2022-10-17T00:50:08;1.58;;;1.23;;
10416;SDS011;62605;49.432;8.680;2022-10-17T00:52:37;1.65;;;1.55;;
10416;SDS011;62605;49.432;8.680;2022-10-17T00:55:07;2.95;;;1.38;;
10416;SDS011;62605;49.432;8.680;2022-10-17T00:57:37;1.63;;;1.50;;
10416;SDS011;62605;49.432;8.680;2022-10-17T01:00:07;1.30;;;1.20;;
10416;SDS011;62605;49.432;8.680;2022-10-17T01:02:36;1.65;;;1.30;;
10416;SDS011;62605;49.432;8.680;2022-10-17T01:05:04;3.80;;;1.55;;
10416;SDS011;62605;49.432;8.680;2022-10-17T01:07:32;1.27;;;1.17;;
10416;SDS011;62605;49.432;8.680;2022-10-17T01:10:01;5.43;;;1.60;;
10416;SDS011;62605;49.432;8.680;2022-10-17T01:12:31;2.45;;;1.38;;
10416;SDS011;62605;49.432;8.680;2022-10-17T01:15:22;1.40;;;1.30;;
10416;SDS011;62605;49.432;8.680;2022-10-17T01:18:05;1.52;;;1.27;;
10416;SDS011;62605;49.432;8.680;2022-10-17T01:20:55;2.00;;;1.52;;
10416;SDS011;62605;49.432;8.680;2022-10-17T01:23:37;2.75;;;1.30;;
10416;SDS011;62605;49.432;8.680;2022-10-17T01:26:22;1.05;;;1.02;;
10416;SDS011;62605;49.432;8.680;2022-10-17T01:29:04;3.38;;;1.52;;
10416;SDS011;62605;49.432;8.680;2022-10-17T01:31:47;3.13;;;1.48;;
10416;SDS011;62605;49.432;8.680;2022-10-17T01:34:21;2.10;;;1.40;;
10416;SDS011;62605;49.432;8.680;2022-10-17T01:36:58;1.42;;;1.20;;
10416;SDS011;62605;49.432;8.680;2022-10-17T01:39:31;2.72;;;1.60;;
10416;SDS011;62605;49.432;8.680;2022-10-17T01:42:09;2.50;;;1.38;;
10416;SDS011;62605;49.432;8.680;2022-10-17T01:44:41;1.23;;;1.13;;
10416;SDS011;62605;49.432;8.680;2022-10-17T01:47:16;1.45;;;1.20;;
10416;SDS011;62605;49.432;8.680;2022-10-17T01:49:45;6.75;;;1.50;;
10416;SDS011;62605;49.432;8.680;2022-10-17T01:52:17;1.50;;;1.40;;
10416;SDS011;62605;49.432;8.680;2022-10-17T01:54:49;1.50;;;1.33;;
10416;SDS011;62605;49.432;8.680;2022-10-17T01:57:19;1.73;;;1.20;;
10416;SDS011;62605;49.432;8.680;2022-10-17T01:59:54;5.97;;;1.67;;
10416;SDS011;62605;49.432;8.680;2022-10-17T02:02:24;1.40;;;1.30;;
10416;SDS011;62605;49.432;8.680;2022-10-17T02:04:52;2.08;;;1.50;;
10416;SDS011;62605;49.432;8.680;2022-10-17T02:07:22;1.35;;;1.25;;
10416;SDS011;62605;49.432;8.680;2022-10-17T02:09:49;1.60;;;1.15;;
10416;SDS011;62605;49.432;8.680;2022-10-17T02:12:27;1.52;;;1.05;;
10416;SDS011;62605;49.432;8.680;2022-10-17T02:15:09;2.78;;;1.65;;
10416;SDS011;62605;49.432;8.680;2022-10-17T02:17:59;3.70;;;1.25;;
10416;SDS011;62605;49.432;8.680;2022-10-17T02:20:39;1.52;;;1.30;;
10416;SDS011;62605;49.432;8.680;2022-10-17T02:23:16;2.85;;;1.48;;
10416;SDS011;62605;49.432;8.680;2022-10-17T02:25:53;1.88;;;1.40;;
10416;SDS011;62605;49.432;8.680;2022-10-17T02:28:28;1.00;;;1.00;;
10416;SDS011;62605;49.432;8.680;2022-10-17T02:31:01;1.30;;;1.20;;
10416;SDS011;62605;49.432;8.680;2022-10-17T02:33:36;3.22;;;1.55;;
10416;SDS011;62605;49.432;8.680;2022-10-17T02:36:09;2.47;;;1.52;;
10416;SDS011;62605;49.432;8.680;2022-10-17T02:38:40;2.65;;;1.50;;
10416;SDS011;62605;49.432;8.680;2022-10-17T02:41:09;1.55;;;1.45;;
10416;SDS011;62605;49.432;8.680;2022-10-17T02:43:38;1.33;;;1.27;;
10416;SDS011;62605;49.432;8.680;2022-10-17T02:46:09;1.30;;;1.20;;
10416;SDS011;62605;49.432;8.680;2022-10-17T02:48:39;1.40;;;1.30;;
10416;SDS011;62605;49.432;8.680;2022-10-17T02:51:11;1.95;;;1.60;;
10416;SDS011;62605;49.432;8.680;2022-10-17T02:53:46;1.23;;;1.13;;
10416;SDS011;62605;49.432;8.680;2022-10-17T02:56:20;4.60;;;1.77;;
10416;SDS011;62605;49.432;8.680;2022-10-17T02:58:47;4.85;;;1.65;;
10416;SDS011;62605;49.432;8.680;2022-10-17T03:01:16;1.48;;;1.38;;
10416;SDS011;62605;49.432;8.680;2022-10-17T03:03:45;2.10;;;1.50;;
10416;SDS011;62605;49.432;8.680;2022-10-17T03:06:12;3.50;;;1.40;;
10416;SDS011;62605;49.432;8.680;2022-10-17T03:08:39;1.48;;;1.38;;
10416;SDS011;62605;49.432;8.680;2022-10-17T03:11:06;2.78;;;1.55;;
10416;SDS011;62605;49.432;8.680;2022-10-17T03:13:33;2.78;;;1.35;;
10416;SDS011;62605;49.432;8.680;2022-10-17T03:16:00;4.32;;;1.30;;
10416;SDS011;62605;49.432;8.680;2022-10-17T03:18:27;2.33;;;1.50;;
10416;SDS011;62605;49.432;8.680;2022-10-17T03:20:55;1.83;;;1.40;;
10416;SDS011;62605;49.432;8.680;2022-10-17T03:23:22;1.33;;;1.27;;
10416;SDS011;62605;49.432;8.680;2022-10-17T03:25:49;1.35;;;1.25;;
10416;SDS011;62605;49.432;8.680;2022-10-17T03:28:16;4.90;;;1.58;;
10416;SDS011;62605;49.432;8.680;2022-10-17T03:30:43;1.20;;;1.10;;
10416;SDS011;62605;49.432;8.680;2022-10-17T03:33:11;1.95;;;1.70;;
10416;SDS011;62605;49.432;8.680;2022-10-17T03:35:38;3.63;;;1.60;;
10416;SDS011;62605;49.432;8.680;2022-10-17T03:38:06;1.50;;;1.40;;
10416;SDS011;62605;49.432;8.680;2022-10-17T03:40:33;1.55;;;1.10;;
10416;SDS011;62605;49.432;8.680;2022-10-17T03:43:00;1.40;;;1.30;;
10416;SDS011;62605;49.432;8.680;2022-10-17T03:45:27;1.20;;;1.10;;
10416;SDS011;62605;49.432;8.680;2022-10-17T03:47:54;1.60;;;1.48;;
10416;SDS011;62605;49.432;8.680;2022-10-17T03:50:21;1.17;;;1.05;;
10416;SDS011;62605;49.432;8.680;2022-10-17T03:52:48;1.67;;;1.38;;
10416;SDS011;62605;49.432;8.680;2022-10-17T03:55:17;3.80;;;1.23;;
10416;SDS011;62605;49.432;8.680;2022-10-17T03:57:43;3.53;;;1.73;;
10416;SDS011;62605;49.432;8.680;2022-10-17T04:00:11;1.70;;;1.10;;
10416;SDS011;62605;49.432;8.680;2022-10-17T04:02:39;1.30;;;1.20;;
10416;SDS011;62605;49.432;8.680;2022-10-17T04:05:06;4.88;;;1.35;;
10416;SDS011;62605;49.432;8.680;2022-10-17T04:07:34;1.60;;;1.50;;
10416;SDS011;62605;49.432;8.680;2022-10-17T04:10:02;3.80;;;1.30;;
10416;SDS011;62605;49.432;8.680;2022-10-17T04:12:31;1.85;;;1.20;;
10416;SDS011;62605;49.432;8.680;2022-10-17T04:14:58;1.70;;;1.60;;
10416;SDS011;62605;49.432;8.680;2022-10-17T04:17:25;4.13;;;1.27;;
10416;SDS011;62605;49.432;8.680;2022-10-17T04:19:52;2.63;;;1.70;;
10416;SDS011;62605;49.432;8.680;2022-10-17T04:22:19;1.30;;;1.20;;
10416;SDS011;62605;49.432;8.680;2022-10-17T04:24:46;1.80;;;1.27;;
10416;SDS011;62605;49.432;8.680;2022-10-17T04:27:12;4.22;;;1.58;;
10416;SDS011;62605;49.432;8.680;2022-10-17T04:29:41;1.63;;;1.30;;
10416;SDS011;62605;49.432;8.680;2022-10-17T04:32:09;2.35;;;1.40;;
10416;SDS011;62605;49.432;8.680;2022-10-17T04:34:36;1.50;;;1.40;;
10416;SDS011;62605;49.432;8.680;2022-10-17T04:37:03;1.90;;;1.75;;
10416;SDS011;62605;49.432;8.680;2022-10-17T04:39:30;8.65;;;1.98;;
10416;SDS011;62605;49.432;8.680;2022-10-17T04:41:57;2.28;;;1.40;;
10416;SDS011;62605;49.432;8.680;2022-10-17T04:44:24;1.65;;;1.50;;
10416;SDS011;62605;49.432;8.680;2022-10-17T04:46:56;1.92;;;1.67;;
10416;SDS011;62605;49.432;8.680;2022-10-17T04:49:23;4.35;;;1.38;;
10416;SDS011;62605;49.432;8.680;2022-10-17T04:51:50;1.48;;;1.38;;
10416;SDS011;62605;49.432;8.680;2022-10-17T04:54:17;2.42;;;1.60;;
10416;SDS011;62605;49.432;8.680;2022-10-17T04:56:44;2.45;;;1.50;;
10416;SDS011;62605;49.432;8.680;2022-10-17T04:59:12;2.55;;;1.38;;
10416;SDS011;62605;49.432;8.680;2022-10-17T05:01:40;2.70;;;1.65;;
10416;SDS011;62605;49.432;8.680;2022-10-17T05:04:08;2.70;;;1.70;;
10416;SDS011;62605;49.432;8.680;2022-10-17T05:06:35;3.53;;;1.40;;
10416;SDS011;62605;49.432;8.680;2022-10-17T05:09:02;1.60;;;1.50;;
10416;SDS011;62605;49.432;8.680;2022-10-17T05:11:30;1.80;;;1.38;;
10416;SDS011;62605;49.432;8.680;2022-10-17T05:14:00;2.05;;;1.70;;
10416;SDS011;62605;49.432;8.680;2022-10-17T05:16:27;2.05;;;1.63;;
10416;SDS011;62605;49.432;8.680;2022-10-17T05:18:56;2.60;;;1.30;;
10416;SDS011;62605;49.432;8.680;2022-10-17T05:21:25;1.40;;;1.25;;
10416;SDS011;62605;49.432;8.680;2022-10-17T05:23:54;1.70;;;1.60;;
10416;SDS011;62605;49.432;8.680;2022-10-17T05:26:22;2.42;;;1.60;;
10416;SDS011;62605;49.432;8.680;2022-10-17T05:28:49;4.20;;;1.70;;
10416;SDS011;62605;49.432;8.680;2022-10-17T05:31:18;2.88;;;1.85;;
10416;SDS011;62605;49.432;8.680;2022-10-17T05:33:45;4.45;;;1.75;;
10416;SDS011;62605;49.432;8.680;2022-10-17T05:36:13;4.45;;;1.95;;
10416;SDS011;62605;49.432;8.680;2022-10-17T05:38:42;4.35;;;1.80;;
10416;SDS011;62605;49.432;8.680;2022-10-17T05:41:09;1.50;;;1.40;;
10416;SDS011;62605;49.432;8.680;2022-10-17T05:43:36;4.10;;;1.52;;
10416;SDS011;62605;49.432;8.680;2022-10-17T05:46:03;2.08;;;1.58;;
10416;SDS011;62605;49.432;8.680;2022-10-17T05:48:31;4.63;;;1.63;;
10416;SDS011;62605;49.432;8.680;2022-10-17T05:50:58;2.88;;;1.50;;
10416;SDS011;62605;49.432;8.680;2022-10-17T05:53:28;2.33;;;1.67;;
10416;SDS011;62605;49.432;8.680;2022-10-17T05:55:58;1.83;;;1.52;;
10416;SDS011;62605;49.432;8.680;2022-10-17T05:58:26;2.35;;;1.73;;
10416;SDS011;62605;49.432;8.680;2022-10-17T06:00:56;1.48;;;1.38;;
10416;SDS011;62605;49.432;8.680;2022-10-17T06:03:23;1.92;;;1.50;;
10416;SDS011;62605;49.432;8.680;2022-10-17T06:05:51;7.05;;;1.40;;
10416;SDS011;62605;49.432;8.680;2022-10-17T06:08:18;2.17;;;1.38;;
10416;SDS011;62605;49.432;8.680;2022-10-17T06:10:46;1.77;;;1.42;;
10416;SDS011;62605;49.432;8.680;2022-10-17T06:13:15;3.90;;;1.42;;
10416;SDS011;62605;49.432;8.680;2022-10-17T06:15:42;1.88;;;1.50;;
10416;SDS011;62605;49.432;8.680;2022-10-17T06:18:09;2.90;;;1.40;;
10416;SDS011;62605;49.432;8.680;2022-10-17T06:20:37;1.67;;;1.45;;
10416;SDS011;62605;49.432;8.680;2022-10-17T06:23:03;5.07;;;1.75;;
10416;SDS011;62605;49.432;8.680;2022-10-17T06:25:31;3.75;;;1.60;;
10416;SDS011;62605;49.432;8.680;2022-10-17T06:27:59;2.78;;;1.60;;
10416;SDS011;62605;49.432;8.680;2022-10-17T06:30:27;5.07;;;1.85;;
10416;SDS011;62605;49.432;8.680;2022-10-17T06:32:55;5.22;;;2.10;;
10416;SDS011;62605;49.432;8.680;2022-10-17T06:35:22;4.20;;;1.45;;
10416;SDS011;62605;49.432;8.680;2022-10-17T06:37:50;1.70;;;1.40;;
10416;SDS011;62605;49.432;8.680;2022-10-17T06:40:17;2.05;;;1.63;;
10416;SDS011;62605;49.432;8.680;2022-10-17T06:42:44;1.58;;;1.30;;
10416;SDS011;62605;49.432;8.680;2022-10-17T06:45:12;1.50;;;1.40;;
10416;SDS011;62605;49.432;8.680;2022-10-17T06:47:41;1.88;;;1.40;;
10416;SDS011;62605;49.432;8.680;2022-10-17T06:50:08;4.28;;;1.70;;
10416;SDS011;62605;49.432;8.680;2022-10-17T06:52:35;1.50;;;1.40;;
10416;SDS011;62605;49.432;8.680;2022-10-17T06:55:02;1.50;;;1.40;;
10416;SDS011;62605;49.432;8.680;2022-10-17T06:57:31;3.13;;;1.60;;
10416;SDS011;62605;49.432;8.680;2022-10-17T06:59:58;3.63;;;1.60;;
10416;SDS011;62605;49.432;8.680;2022-10-17T07:02:25;2.10;;;1.40;;
10416;SDS011;62605;49.432;8.680;2022-10-17T07:04:57;1.70;;;1.40;;
10416;SDS011;62605;49.432;8.680;2022-10-17T07:07:24;2.00;;;1.48;;
10416;SDS011;62605;49.432;8.680;2022-10-17T07:09:51;1.70;;;1.38;;
10416;SDS011;62605;49.432;8.680;2022-10-17T07:12:18;1.63;;;1.45;;
10416;SDS011;62605;49.432;8.680;2022-10-17T07:14:45;1.67;;;1.30;;
10416;SDS011;62605;49.432;8.680;2022-10-17T07:17:14;1.10;;;1.08;;
10416;SDS011;62605;49.432;8.680;2022-10-17T07:19:41;2.38;;;1.33;;
10416;SDS011;62605;49.432;8.680;2022-10-17T07:22:10;2.75;;;1.90;;
10416;SDS011;62605;49.432;8.680;2022-10-17T07:24:37;1.40;;;1.30;;
10416;SDS011;62605;49.432;8.680;2022-10-17T07:27:04;1.92;;;1.42;;
10416;SDS011;62605;49.432;8.680;2022-10-17T07:29:31;2.15;;;1.75;;
10416;SDS011;62605;49.432;8.680;2022-10-17T07:31:58;3.15;;;1.50;;
10416;SDS011;62605;49.432;8.680;2022-10-17T07:34:28;2.28;;;1.92;;
10416;SDS011;62605;49.432;8.680;2022-10-17T07:36:55;2.88;;;1.80;;
10416;SDS011;62605;49.432;8.680;2022-10-17T07:39:24;3.58;;;1.80;;
10416;SDS011;62605;49.432;8.680;2022-10-17T07:41:51;1.80;;;1.55;;
10416;SDS011;62605;49.432;8.680;2022-10-17T07:44:18;2.22;;;1.70;;
10416;SDS011;62605;49.432;8.680;2022-10-17T07:46:45;1.98;;;1.80;;
10416;SDS011;62605;49.432;8.680;2022-10-17T07:49:12;3.25;;;1.35;;
10416;SDS011;62605;49.432;8.680;2022-10-17T07:51:39;1.77;;;1.58;;
10416;SDS011;62605;49.432;8.680;2022-10-17T07:54:07;2.17;;;1.80;;
10416;SDS011;62605;49.432;8.680;2022-10-17T07:56:35;6.90;;;1.98;;
10416;SDS011;62605;49.432;8.680;2022-10-17T07:59:02;2.28;;;1.50;;
10416;SDS011;62605;49.432;8.680;2022-10-17T08:01:29;2.25;;;1.50;;
10416;SDS011;62605;49.432;8.680;2022-10-17T08:03:57;1.92;;;1.38;;
10416;SDS011;62605;49.432;8.680;2022-10-17T08:06:24;1.83;;;1.45;;
10416;SDS011;62605;49.432;8.680;2022-10-17T08:08:50;2.03;;;1.65;;
10416;SDS011;62605;49.432;8.680;2022-10-17T08:11:17;2.65;;;1.63;;
10416;SDS011;62605;49.432;8.680;2022-10-17T08:13:46;5.57;;;1.88;;
10416;SDS011;62605;49.432;8.680;2022-10-17T08:16:13;2.55;;;1.80;;
10416;SDS011;62605;49.432;8.680;2022-10-17T08:18:41;2.80;;;1.77;;
10416;SDS011;62605;49.432;8.680;2022-10-17T08:21:09;1.90;;;1.60;;
10416;SDS011;62605;49.432;8.680;2022-10-17T08:23:37;7.07;;;1.63;;
10416;SDS011;62605;49.432;8.680;2022-10-17T08:26:05;1.88;;;1.45;;
10416;SDS011;62605;49.432;8.680;2022-10-17T08:28:35;7.25;;;1.70;;
10416;SDS011;62605;49.432;8.680;2022-10-17T08:31:05;2.05;;;1.65;;
10416;SDS011;62605;49.432;8.680;2022-10-17T08:33:33;2.92;;;1.80;;
10416;SDS011;62605;49.432;8.680;2022-10-17T08:36:01;2.45;;;1.65;;
10416;SDS011;62605;49.432;8.680;2022-10-17T08:38:29;8.18;;;1.90;;
10416;SDS011;62605;49.432;8.680;2022-10-17T08:40:59;5.18;;;1.98;;
10416;SDS011;62605;49.432;8.680;2022-10-17T08:43:35;2.90;;;1.92;;
10416;SDS011;62605;49.432;8.680;2022-10-17T09:19:09;2.00;;;1.33;;
10416;SDS011;62605;49.432;8.680;2022-10-17T09:21:43;2.08;;;1.55;;
10416;SDS011;62605;49.432;8.680;2022-10-17T09:24:14;3.05;;;1.42;;
10416;SDS011;62605;49.432;8.680;2022-10-17T09:26:44;2.05;;;1.90;;
10416;SDS011;62605;49.432;8.680;2022-10-17T09:29:16;1.70;;;1.40;;
10416;SDS011;62605;49.432;8.680;2022-10-17T09:31:48;2.40;;;1.33;;
10416;SDS011;62605;49.432;8.680;2022-10-17T09:34:21;1.92;;;1.60;;
10416;SDS011;62605;49.432;8.680;2022-10-17T09:36:51;3.35;;;1.58;;
10416;SDS011;62605;49.432;8.680;2022-10-17T09:39:18;3.05;;;1.77;;
10416;SDS011;62605;49.432;8.680;2022-10-17T09:41:49;2.35;;;1.45;;
10416;SDS011;62605;49.432;8.680;2022-10-17T09:44:21;2.40;;;1.35;;
10416;SDS011;62605;49.432;8.680;2022-10-17T09:46:53;1.67;;;1.55;;
10416;SDS011;62605;49.432;8.680;2022-10-17T09:49:33;4.60;;;1.83;;
10416;SDS011;62605;49.432;8.680;2022-10-17T09:52:02;1.60;;;1.40;;
10416;SDS011;62605;49.432;8.680;2022-10-17T09:54:33;6.78;;;1.92;;
10416;SDS011;62605;49.432;8.680;2022-10-17T09:57:07;4.07;;;1.48;;
10416;SDS011;62605;49.432;8.680;2022-10-17T09:59:37;1.60;;;1.50;;
10416;SDS011;62605;49.432;8.680;2022-10-17T10:02:09;2.13;;;1.55;;
10416;SDS011;62605;49.432;8.680;2022-10-17T10:04:57;1.70;;;1.60;;
10416;SDS011;62605;49.432;8.680;2022-10-17T10:07:27;2.05;;;1.50;;
10416;SDS011;62605;49.432;8.680;2022-10-17T10:09:55;3.65;;;1.50;;
10416;SDS011;62605;49.432;8.680;2022-10-17T10:12:24;3.25;;;1.48;;
10416;SDS011;62605;49.432;8.680;2022-10-17T10:14:52;4.07;;;1.83;;
10416;SDS011;62605;49.432;8.680;2022-10-17T10:17:27;2.13;;;1.65;;
10416;SDS011;62605;49.432;8.680;2022-10-17T10:20:03;4.78;;;1.80;;
10416;SDS011;62605;49.432;8.680;2022-10-17T10:25:48;2.92;;;1.85;;
10416;SDS011;62605;49.432;8.680;2022-10-17T10:28:20;3.40;;;1.98;;
10416;SDS011;62605;49.432;8.680;2022-10-17T10:30:51;2.17;;;1.98;;
10416;SDS011;62605;49.432;8.680;2022-10-17T10:33:21;1.50;;;1.40;;
10416;SDS011;62605;49.432;8.680;2022-10-17T10:35:52;3.58;;;1.73;;
10416;SDS011;62605;49.432;8.680;2022-10-17T10:38:22;4.10;;;1.70;;
10416;SDS011;62605;49.432;8.680;2022-10-17T10:40:51;1.52;;;1.38;;
10416;SDS011;62605;49.432;8.680;2022-10-17T10:43:20;1.98;;;1.50;;
10416;SDS011;62605;49.432;8.680;2022-10-17T10:45:52;1.48;;;1.38;;
10416;SDS011;62605;49.432;8.680;2022-10-17T10:48:20;1.60;;;1.50;;
10416;SDS011;62605;49.432;8.680;2022-10-17T10:50:49;1.40;;;1.30;;
10416;SDS011;62605;49.432;8.680;2022-10-17T10:53:28;2.38;;;1.55;;
10416;SDS011;62605;49.432;8.680;2022-10-17T10:56:00;2.53;;;1.58;;
10416;SDS011;62605;49.432;8.680;2022-10-17T10:58:32;1.85;;;1.40;;
10416;SDS011;62605;49.432;8.680;2022-10-17T11:01:13;4.63;;;1.45;;
10416;SDS011;62605;49.432;8.680;2022-10-17T11:03:48;2.55;;;1.60;;
10416;SDS011;62605;49.432;8.680;2022-10-17T11:06:33;3.22;;;1.60;;
10416;SDS011;62605;49.432;8.680;2022-10-17T11:09:11;4.32;;;2.00;;
10416;SDS011;62605;49.432;8.680;2022-10-17T11:11:46;4.68;;;1.60;;
10416;SDS011;62605;49.432;8.680;2022-10-17T11:14:18;2.17;;;1.70;;
10416;SDS011;62605;49.432;8.680;2022-10-17T11:16:53;1.83;;;1.73;;
10416;SDS011;62605;49.432;8.680;2022-10-17T11:19:27;1.60;;;1.50;;
10416;SDS011;62605;49.432;8.680;2022-10-17T11:22:17;2.28;;;1.90;;
10416;SDS011;62605;49.432;8.680;2022-10-17T11:24:51;5.35;;;1.52;;
10416;SDS011;62605;49.432;8.680;2022-10-17T11:27:23;1.88;;;1.77;;
10416;SDS011;62605;49.432;8.680;2022-10-17T11:29:53;1.83;;;1.73;;
10416;SDS011;62605;49.432;8.680;2022-10-17T11:32:23;4.78;;;1.88;;
10416;SDS011;62605;49.432;8.680;2022-10-17T11:34:56;1.42;;;1.33;;
10416;SDS011;62605;49.432;8.680;2022-10-17T11:37:31;3.60;;;1.90;;
10416;SDS011;62605;49.432;8.680;2022-10-17T11:40:05;3.78;;;1.38;;
10416;SDS011;62605;49.432;8.680;2022-10-17T11:42:45;1.65;;;1.55;;
10416;SDS011;62605;49.432;8.680;2022-10-17T11:45:17;3.15;;;1.70;;
10416;SDS011;62605;49.432;8.680;2022-10-17T11:47:48;2.83;;;1.60;;
10416;SDS011;62605;49.432;8.680;2022-10-17T11:50:19;1.83;;;1.70;;
10416;SDS011;62605;49.432;8.680;2022-10-17T11:52:50;2.47;;;1.73;;
10416;SDS011;62605;49.432;8.680;2022-10-17T11:55:23;2.13;;;1.67;;
10416;SDS011;62605;49.432;8.680;2022-10-17T11:57:59;3.22;;;1.50;;
10416;SDS011;62605;49.432;8.680;2022-10-17T12:00:39;3.97;;;1.60;;
10416;SDS011;62605;49.432;8.680;2022-10-17T12:03:22;4.00;;;1.70;;
10416;SDS011;62605;49.432;8.680;2022-10-17T12:06:10;2.30;;;1.60;;
10416;SDS011;62605;49.432;8.680;2022-10-17T12:08:43;3.70;;;1.52;;
10416;SDS011;62605;49.432;8.680;2022-10-17T12:11:23;3.85;;;1.75;;
10416;SDS011;62605;49.432;8.680;2022-10-17T12:13:58;3.65;;;1.73;;
10416;SDS011;62605;49.432;8.680;2022-10-17T12:16:36;4.50;;;1.88;;
10416;SDS011;62605;49.432;8.680;2022-10-17T12:19:13;1.95;;;1.80;;
10416;SDS011;62605;49.432;8.680;2022-10-17T12:21:52;4.70;;;1.77;;
10416;SDS011;62605;49.432;8.680;2022-10-17T12:24:27;2.95;;;1.50;;
10416;SDS011;62605;49.432;8.680;2022-10-17T12:27:23;4.93;;;1.80;;
10416;SDS011;62605;49.432;8.680;2022-10-17T12:30:02;2.10;;;1.63;;
10416;SDS011;62605;49.432;8.680;2022-10-17T12:32:31;1.45;;;1.25;;
10416;SDS011;62605;49.432;8.680;2022-10-17T12:34:59;2.28;;;1.60;;
10416;SDS011;62605;49.432;8.680;2022-10-17T12:40:47;2.47;;;1.63;;
10416;SDS011;62605;49.432;8.680;2022-10-17T12:49:21;5.10;;;1.88;;
10416;SDS011;62605;49.432;8.680;2022-10-17T12:54:57;5.18;;;1.77;;
10416;SDS011;62605;49.432;8.680;2022-10-17T12:57:33;1.85;;;1.63;;
10416;SDS011;62605;49.432;8.680;2022-10-17T13:00:05;5.05;;;1.65;;
10416;SDS011;62605;49.432;8.680;2022-10-17T13:02:41;3.28;;;1.70;;
10416;SDS011;62605;49.432;8.680;2022-10-17T13:05:12;1.83;;;1.70;;
10416;SDS011;62605;49.432;8.680;2022-10-17T13:07:41;5.15;;;1.95;;
10416;SDS011;62605;49.432;8.680;2022-10-17T13:10:17;2.30;;;1.90;;
10416;SDS011;62605;49.432;8.680;2022-10-17T13:12:46;3.00;;;1.98;;
10416;SDS011;62605;49.432;8.680;2022-10-17T13:15:15;4.72;;;2.03;;
10416;SDS011;62605;49.432;8.680;2022-10-17T13:17:43;3.80;;;1.92;;
10416;SDS011;62605;49.432;8.680;2022-10-17T13:20:19;2.08;;;1.58;;
10416;SDS011;62605;49.432;8.680;2022-10-17T13:22:49;4.65;;;1.77;;
10416;SDS011;62605;49.432;8.680;2022-10-17T13:25:17;4.00;;;1.67;;
10416;SDS011;62605;49.432;8.680;2022-10-17T13:27:46;3.58;;;1.70;;
10416;SDS011;62605;49.432;8.680;2022-10-17T13:30:20;1.70;;;1.60;;
10416;SDS011;62605;49.432;8.680;2022-10-17T13:32:52;3.80;;;1.73;;
10416;SDS011;62605;49.432;8.680;2022-10-17T13:35:25;7.47;;;1.90;;
10416;SDS011;62605;49.432;8.680;2022-10-17T13:37:55;2.17;;;1.65;;
10416;SDS011;62605;49.432;8.680;2022-10-17T13:40:23;3.70;;;1.70;;
10416;SDS011;62605;49.432;8.680;2022-10-17T13:42:52;2.72;;;1.80;;
10416;SDS011;62605;49.432;8.680;2022-10-17T13:45:23;2.50;;;1.60;;
10416;SDS011;62605;49.432;8.680;2022-10-17T13:47:54;2.30;;;1.65;;
10416;SDS011;62605;49.432;8.680;2022-10-17T13:50:26;2.30;;;1.63;;
10416;SDS011;62605;49.432;8.680;2022-10-17T13:53:17;2.97;;;2.00;;
10416;SDS011;62605;49.432;8.680;2022-10-17T13:55:49;2.25;;;1.67;;
10416;SDS011;62605;49.432;8.680;2022-10-17T13:58:17;2.55;;;2.00;;
10416;SDS011;62605;49.432;8.680;2022-10-17T14:00:45;3.38;;;1.77;;
10416;SDS011;62605;49.432;8.680;2022-10-17T14:03:13;5.82;;;2.00;;
10416;SDS011;62605;49.432;8.680;2022-10-17T14:06:05;2.78;;;2.00;;
10416;SDS011;62605;49.432;8.680;2022-10-17T14:08:38;3.50;;;2.08;;
10416;SDS011;62605;49.432;8.680;2022-10-17T14:11:13;3.20;;;1.90;;
10416;SDS011;62605;49.432;8.680;2022-10-17T14:13:46;1.80;;;1.70;;
10416;SDS011;62605;49.432;8.680;2022-10-17T14:16:14;3.42;;;2.03;;
10416;SDS011;62605;49.432;8.680;2022-10-17T14:18:44;1.70;;;1.55;;
10416;SDS011;62605;49.432;8.680;2022-10-17T14:21:18;3.90;;;1.75;;
10416;SDS011;62605;49.432;8.680;2022-10-17T14:23:48;2.20;;;1.73;;
10416;SDS011;62605;49.432;8.680;2022-10-17T14:26:17;1.92;;;1.55;;
10416;SDS011;62605;49.432;8.680;2022-10-17T14:28:46;3.38;;;1.75;;
10416;SDS011;62605;49.432;8.680;2022-10-17T14:31:24;3.38;;;1.73;;
10416;SDS011;62605;49.432;8.680;2022-10-17T14:33:55;2.45;;;1.95;;
10416;SDS011;62605;49.432;8.680;2022-10-17T14:36:45;6.20;;;2.97;;
10416;SDS011;62605;49.432;8.680;2022-10-17T14:39:17;2.35;;;1.77;;
10416;SDS011;62605;49.432;8.680;2022-10-17T14:41:46;2.65;;;2.03;;
10416;SDS011;62605;49.432;8.680;2022-10-17T14:44:16;2.38;;;1.70;;
10416;SDS011;62605;49.432;8.680;2022-10-17T14:46:48;3.70;;;1.70;;
10416;SDS011;62605;49.432;8.680;2022-10-17T14:49:18;3.08;;;2.10;;
10416;SDS011;62605;49.432;8.680;2022-10-17T14:52:10;4.47;;;2.03;;
10416;SDS011;62605;49.432;8.680;2022-10-17T14:54:55;3.47;;;2.10;;
10416;SDS011;62605;49.432;8.680;2022-10-17T14:57:41;2.13;;;1.73;;
10416;SDS011;62605;49.432;8.680;2022-10-17T15:00:12;2.40;;;1.95;;
10416;SDS011;62605;49.432;8.680;2022-10-17T15:02:41;3.83;;;1.83;;
10416;SDS011;62605;49.432;8.680;2022-10-17T15:05:08;3.17;;;1.88;;
10416;SDS011;62605;49.432;8.680;2022-10-17T15:07:37;5.38;;;2.00;;
10416;SDS011;62605;49.432;8.680;2022-10-17T15:10:05;2.92;;;2.20;;
10416;SDS011;62605;49.432;8.680;2022-10-17T15:12:33;3.47;;;2.15;;
10416;SDS011;62605;49.432;8.680;2022-10-17T15:15:00;2.70;;;1.85;;
10416;SDS011;62605;49.432;8.680;2022-10-17T15:17:28;5.43;;;2.10;;
10416;SDS011;62605;49.432;8.680;2022-10-17T15:19:58;2.90;;;2.20;;
10416;SDS011;62605;49.432;8.680;2022-10-17T15:22:25;2.90;;;1.92;;
10416;SDS011;62605;49.432;8.680;2022-10-17T15:24:54;1.95;;;1.80;;
10416;SDS011;62605;49.432;8.680;2022-10-17T15:27:22;4.28;;;2.15;;
10416;SDS011;62605;49.432;8.680;2022-10-17T15:29:50;3.83;;;2.15;;
10416;SDS011;62605;49.432;8.680;2022-10-17T15:32:18;2.83;;;2.40;;
10416;SDS011;62605;49.432;8.680;2022-10-17T15:34:45;6.82;;;3.67;;
10416;SDS011;62605;49.432;8.680;2022-10-17T15:37:14;6.13;;;3.75;;
10416;SDS011;62605;49.432;8.680;2022-10-17T15:39:47;4.70;;;2.85;;
10416;SDS011;62605;49.432;8.680;2022-10-17T15:42:19;3.80;;;2.90;;
10416;SDS011;62605;49.432;8.680;2022-10-17T15:44:47;4.18;;;2.75;;
10416;SDS011;62605;49.432;8.680;2022-10-17T15:47:17;3.10;;;2.25;;
10416;SDS011;62605;49.432;8.680;2022-10-17T15:49:49;3.63;;;2.15;;
10416;SDS011;62605;49.432;8.680;2022-10-17T15:52:17;6.63;;;2.38;;
10416;SDS011;62605;49.432;8.680;2022-10-17T15:54:44;8.43;;;2.70;;
10416;SDS011;62605;49.432;8.680;2022-10-17T15:57:13;3.05;;;1.85;;